sensor_id;sensor_type;location;lat;lon;timestamp;P1;durP1;ratioP1;P2;durP2;ratioP2
55993;SDS011;41879;52.126;20.638;2022-10-16T00:01:16;13.52;;;8.98;;
55993;SDS011;41879;52.126;20.638;2022-10-16T00:03:44;15.68;;;8.57;;
55993;SDS011;41879;52.126;20.638;2022-10-16T00:06:12;11.65;;;8.23;;
55993;SDS011;41879;52.126;20.638;2022-10-16T00:08:38;12.85;;;8.55;;
55993;SDS011;41879;52.126;20.638;2022-10-16T00:11:08;15.60;;;7.88;;
55993;SDS011;41879;52.126;20.638;2022-10-16T00:13:36;20.55;;;8.88;;
55993;SDS011;41879;52.126;20.638;2022-10-16T00:16:04;14.60;;;8.35;;
55993;SDS011;41879;52.126;20.638;2022-10-16T00:18:30;19.90;;;8.85;;
55993;SDS011;41879;52.126;20.638;2022-10-16T00:21:01;13.57;;;8.48;;
55993;SDS011;41879;52.126;20.638;2022-10-16T00:23:30;15.45;;;8.48;;
55993;SDS011;41879;52.126;20.638;2022-10-16T00:25:57;16.33;;;8.57;;
55993;SDS011;41879;52.126;20.638;2022-10-16T00:28:24;11.93;;;8.00;;
55993;SDS011;41879;52.126;20.638;2022-10-16T00:30:50;11.68;;;8.15;;
55993;SDS011;41879;52.126;20.638;2022-10-16T00:33:16;11.02;;;7.65;;
55993;SDS011;41879;52.126;20.638;2022-10-16T00:35:41;13.80;;;8.63;;
55993;SDS011;41879;52.126;20.638;2022-10-16T00:38:07;13.18;;;8.30;;
55993;SDS011;41879;52.126;20.638;2022-10-16T00:40:33;13.55;;;9.45;;
55993;SDS011;41879;52.126;20.638;2022-10-16T00:42:58;13.55;;;8.77;;
55993;SDS011;41879;52.126;20.638;2022-10-16T00:45:24;11.43;;;7.95;;
55993;SDS011;41879;52.126;20.638;2022-10-16T00:47:49;14.20;;;8.05;;
55993;SDS011;41879;52.126;20.638;2022-10-16T00:50:28;15.00;;;8.77;;
55993;SDS011;41879;52.126;20.638;2022-10-16T00:52:56;19.50;;;9.10;;
55993;SDS011;41879;52.126;20.638;2022-10-16T00:55:23;13.43;;;8.45;;
55993;SDS011;41879;52.126;20.638;2022-10-16T00:57:50;16.65;;;8.80;;
55993;SDS011;41879;52.126;20.638;2022-10-16T01:00:20;11.38;;;8.25;;
55993;SDS011;41879;52.126;20.638;2022-10-16T01:02:55;16.08;;;9.02;;
55993;SDS011;41879;52.126;20.638;2022-10-16T01:05:23;11.48;;;9.32;;
55993;SDS011;41879;52.126;20.638;2022-10-16T01:07:56;14.60;;;8.63;;
55993;SDS011;41879;52.126;20.638;2022-10-16T01:10:44;14.60;;;8.23;;
55993;SDS011;41879;52.126;20.638;2022-10-16T01:13:24;13.15;;;9.18;;
55993;SDS011;41879;52.126;20.638;2022-10-16T01:19:07;12.63;;;8.45;;
55993;SDS011;41879;52.126;20.638;2022-10-16T01:21:40;18.83;;;9.55;;
55993;SDS011;41879;52.126;20.638;2022-10-16T01:27:06;17.33;;;9.60;;
55993;SDS011;41879;52.126;20.638;2022-10-16T01:30:02;18.73;;;10.52;;
55993;SDS011;41879;52.126;20.638;2022-10-16T01:32:40;21.38;;;10.60;;
55993;SDS011;41879;52.126;20.638;2022-10-16T01:35:12;15.25;;;10.25;;
55993;SDS011;41879;52.126;20.638;2022-10-16T01:40:36;16.00;;;10.10;;
55993;SDS011;41879;52.126;20.638;2022-10-16T01:43:05;17.95;;;10.63;;
55993;SDS011;41879;52.126;20.638;2022-10-16T01:45:35;16.08;;;10.93;;
55993;SDS011;41879;52.126;20.638;2022-10-16T01:48:02;25.20;;;10.95;;
55993;SDS011;41879;52.126;20.638;2022-10-16T01:50:31;19.80;;;10.52;;
55993;SDS011;41879;52.126;20.638;2022-10-16T01:53:00;19.88;;;10.80;;
55993;SDS011;41879;52.126;20.638;2022-10-16T01:55:28;21.10;;;11.05;;
55993;SDS011;41879;52.126;20.638;2022-10-16T01:57:56;20.80;;;10.63;;
55993;SDS011;41879;52.126;20.638;2022-10-16T02:00:24;15.88;;;10.40;;
55993;SDS011;41879;52.126;20.638;2022-10-16T02:02:52;17.30;;;10.10;;
55993;SDS011;41879;52.126;20.638;2022-10-16T02:05:27;19.65;;;10.05;;
55993;SDS011;41879;52.126;20.638;2022-10-16T02:07:57;16.38;;;10.65;;
55993;SDS011;41879;52.126;20.638;2022-10-16T02:10:23;20.17;;;10.90;;
55993;SDS011;41879;52.126;20.638;2022-10-16T02:13:11;21.73;;;11.18;;
55993;SDS011;41879;52.126;20.638;2022-10-16T02:15:38;20.13;;;10.38;;
55993;SDS011;41879;52.126;20.638;2022-10-16T02:18:04;19.58;;;11.45;;
55993;SDS011;41879;52.126;20.638;2022-10-16T02:20:33;18.40;;;11.15;;
55993;SDS011;41879;52.126;20.638;2022-10-16T02:23:12;24.02;;;11.60;;
55993;SDS011;41879;52.126;20.638;2022-10-16T02:25:43;15.32;;;10.50;;
55993;SDS011;41879;52.126;20.638;2022-10-16T02:28:19;17.02;;;10.20;;
55993;SDS011;41879;52.126;20.638;2022-10-16T02:30:58;26.75;;;11.70;;
55993;SDS011;41879;52.126;20.638;2022-10-16T02:33:26;23.40;;;11.75;;
55993;SDS011;41879;52.126;20.638;2022-10-16T02:35:54;15.85;;;10.88;;
55993;SDS011;41879;52.126;20.638;2022-10-16T02:38:21;21.05;;;10.95;;
55993;SDS011;41879;52.126;20.638;2022-10-16T02:40:48;19.48;;;10.65;;
55993;SDS011;41879;52.126;20.638;2022-10-16T02:43:13;18.48;;;10.85;;
55993;SDS011;41879;52.126;20.638;2022-10-16T02:45:40;14.60;;;10.32;;
55993;SDS011;41879;52.126;20.638;2022-10-16T02:48:06;21.52;;;11.30;;
55993;SDS011;41879;52.126;20.638;2022-10-16T02:50:31;27.20;;;10.82;;
55993;SDS011;41879;52.126;20.638;2022-10-16T02:52:57;19.15;;;10.88;;
55993;SDS011;41879;52.126;20.638;2022-10-16T02:55:23;19.95;;;10.60;;
55993;SDS011;41879;52.126;20.638;2022-10-16T02:57:48;18.27;;;11.43;;
55993;SDS011;41879;52.126;20.638;2022-10-16T03:00:14;18.98;;;10.77;;
55993;SDS011;41879;52.126;20.638;2022-10-16T03:02:42;21.75;;;10.27;;
55993;SDS011;41879;52.126;20.638;2022-10-16T03:05:08;16.70;;;10.35;;
55993;SDS011;41879;52.126;20.638;2022-10-16T03:07:34;22.38;;;11.15;;
55993;SDS011;41879;52.126;20.638;2022-10-16T03:10:00;20.23;;;10.00;;
55993;SDS011;41879;52.126;20.638;2022-10-16T03:12:28;19.10;;;11.15;;
55993;SDS011;41879;52.126;20.638;2022-10-16T03:14:57;23.88;;;11.88;;
55993;SDS011;41879;52.126;20.638;2022-10-16T03:17:23;17.27;;;10.27;;
55993;SDS011;41879;52.126;20.638;2022-10-16T03:19:49;23.77;;;11.07;;
55993;SDS011;41879;52.126;20.638;2022-10-16T03:22:15;27.90;;;11.40;;
55993;SDS011;41879;52.126;20.638;2022-10-16T03:24:40;27.13;;;11.73;;
55993;SDS011;41879;52.126;20.638;2022-10-16T03:27:06;15.02;;;10.70;;
55993;SDS011;41879;52.126;20.638;2022-10-16T03:29:32;24.25;;;9.93;;
55993;SDS011;41879;52.126;20.638;2022-10-16T03:31:58;27.23;;;12.40;;
55993;SDS011;41879;52.126;20.638;2022-10-16T03:34:24;26.88;;;11.32;;
55993;SDS011;41879;52.126;20.638;2022-10-16T03:36:50;19.63;;;11.40;;
55993;SDS011;41879;52.126;20.638;2022-10-16T03:39:16;20.13;;;10.93;;
55993;SDS011;41879;52.126;20.638;2022-10-16T03:41:41;21.17;;;11.55;;
55993;SDS011;41879;52.126;20.638;2022-10-16T03:44:07;17.88;;;10.70;;
55993;SDS011;41879;52.126;20.638;2022-10-16T03:46:32;25.95;;;10.43;;
55993;SDS011;41879;52.126;20.638;2022-10-16T03:48:58;20.60;;;10.40;;
55993;SDS011;41879;52.126;20.638;2022-10-16T03:51:23;21.67;;;11.80;;
55993;SDS011;41879;52.126;20.638;2022-10-16T03:53:49;26.50;;;11.52;;
55993;SDS011;41879;52.126;20.638;2022-10-16T03:56:14;22.42;;;10.85;;
55993;SDS011;41879;52.126;20.638;2022-10-16T03:58:40;22.02;;;11.48;;
55993;SDS011;41879;52.126;20.638;2022-10-16T04:01:06;14.82;;;10.43;;
55993;SDS011;41879;52.126;20.638;2022-10-16T04:03:31;17.75;;;10.95;;
55993;SDS011;41879;52.126;20.638;2022-10-16T04:05:57;20.88;;;11.80;;
55993;SDS011;41879;52.126;20.638;2022-10-16T04:08:22;21.88;;;11.70;;
55993;SDS011;41879;52.126;20.638;2022-10-16T04:10:48;15.23;;;10.40;;
55993;SDS011;41879;52.126;20.638;2022-10-16T04:13:13;20.10;;;11.80;;
55993;SDS011;41879;52.126;20.638;2022-10-16T04:15:39;22.60;;;11.02;;
55993;SDS011;41879;52.126;20.638;2022-10-16T04:18:05;21.55;;;12.00;;
55993;SDS011;41879;52.126;20.638;2022-10-16T04:20:31;20.85;;;11.98;;
55993;SDS011;41879;52.126;20.638;2022-10-16T04:22:56;17.65;;;11.63;;
55993;SDS011;41879;52.126;20.638;2022-10-16T04:25:22;26.27;;;12.52;;
55993;SDS011;41879;52.126;20.638;2022-10-16T04:27:47;17.65;;;11.55;;
55993;SDS011;41879;52.126;20.638;2022-10-16T04:30:13;19.58;;;12.05;;
55993;SDS011;41879;52.126;20.638;2022-10-16T04:32:39;25.27;;;11.90;;
55993;SDS011;41879;52.126;20.638;2022-10-16T04:35:05;22.13;;;12.05;;
55993;SDS011;41879;52.126;20.638;2022-10-16T04:37:31;24.35;;;11.98;;
55993;SDS011;41879;52.126;20.638;2022-10-16T04:39:56;22.08;;;10.98;;
55993;SDS011;41879;52.126;20.638;2022-10-16T04:42:22;17.67;;;12.02;;
55993;SDS011;41879;52.126;20.638;2022-10-16T04:44:48;16.88;;;11.45;;
55993;SDS011;41879;52.126;20.638;2022-10-16T04:47:13;19.02;;;12.15;;
55993;SDS011;41879;52.126;20.638;2022-10-16T04:49:39;20.55;;;12.30;;
55993;SDS011;41879;52.126;20.638;2022-10-16T04:52:04;22.17;;;12.43;;
55993;SDS011;41879;52.126;20.638;2022-10-16T04:54:30;17.35;;;11.70;;
55993;SDS011;41879;52.126;20.638;2022-10-16T04:56:56;19.42;;;13.10;;
55993;SDS011;41879;52.126;20.638;2022-10-16T04:59:22;22.90;;;13.02;;
55993;SDS011;41879;52.126;20.638;2022-10-16T05:01:48;22.70;;;13.82;;
55993;SDS011;41879;52.126;20.638;2022-10-16T05:04:14;28.42;;;13.05;;
55993;SDS011;41879;52.126;20.638;2022-10-16T05:06:40;19.50;;;12.05;;
55993;SDS011;41879;52.126;20.638;2022-10-16T05:09:06;21.42;;;11.70;;
55993;SDS011;41879;52.126;20.638;2022-10-16T05:11:32;23.17;;;12.57;;
55993;SDS011;41879;52.126;20.638;2022-10-16T05:13:58;27.95;;;12.65;;
55993;SDS011;41879;52.126;20.638;2022-10-16T05:16:24;21.80;;;12.20;;
55993;SDS011;41879;52.126;20.638;2022-10-16T05:18:50;23.95;;;13.00;;
55993;SDS011;41879;52.126;20.638;2022-10-16T05:21:16;23.13;;;12.32;;
55993;SDS011;41879;52.126;20.638;2022-10-16T05:23:42;21.05;;;12.50;;
55993;SDS011;41879;52.126;20.638;2022-10-16T05:26:08;20.95;;;12.48;;
55993;SDS011;41879;52.126;20.638;2022-10-16T05:28:33;22.38;;;13.23;;
55993;SDS011;41879;52.126;20.638;2022-10-16T05:30:59;19.30;;;13.10;;
55993;SDS011;41879;52.126;20.638;2022-10-16T05:33:25;23.42;;;12.65;;
55993;SDS011;41879;52.126;20.638;2022-10-16T05:35:51;24.35;;;13.23;;
55993;SDS011;41879;52.126;20.638;2022-10-16T05:38:17;21.08;;;13.07;;
55993;SDS011;41879;52.126;20.638;2022-10-16T05:40:49;20.08;;;12.38;;
55993;SDS011;41879;52.126;20.638;2022-10-16T05:43:16;23.63;;;13.73;;
55993;SDS011;41879;52.126;20.638;2022-10-16T05:45:41;26.55;;;13.75;;
55993;SDS011;41879;52.126;20.638;2022-10-16T05:48:07;21.77;;;12.98;;
55993;SDS011;41879;52.126;20.638;2022-10-16T05:50:33;18.35;;;12.38;;
55993;SDS011;41879;52.126;20.638;2022-10-16T05:52:58;23.40;;;13.20;;
55993;SDS011;41879;52.126;20.638;2022-10-16T05:55:24;20.13;;;13.23;;
55993;SDS011;41879;52.126;20.638;2022-10-16T05:57:49;30.50;;;13.48;;
55993;SDS011;41879;52.126;20.638;2022-10-16T06:00:15;23.30;;;12.27;;
55993;SDS011;41879;52.126;20.638;2022-10-16T06:02:40;19.42;;;11.65;;
55993;SDS011;41879;52.126;20.638;2022-10-16T06:05:06;20.35;;;11.90;;
55993;SDS011;41879;52.126;20.638;2022-10-16T06:07:34;19.02;;;11.60;;
55993;SDS011;41879;52.126;20.638;2022-10-16T06:10:01;24.80;;;11.63;;
55993;SDS011;41879;52.126;20.638;2022-10-16T06:12:27;22.55;;;12.15;;
55993;SDS011;41879;52.126;20.638;2022-10-16T06:14:53;19.23;;;12.18;;
55993;SDS011;41879;52.126;20.638;2022-10-16T06:17:18;22.00;;;12.45;;
55993;SDS011;41879;52.126;20.638;2022-10-16T06:19:44;20.40;;;11.48;;
55993;SDS011;41879;52.126;20.638;2022-10-16T06:22:09;17.02;;;11.00;;
55993;SDS011;41879;52.126;20.638;2022-10-16T06:24:35;17.88;;;11.40;;
55993;SDS011;41879;52.126;20.638;2022-10-16T06:27:01;17.40;;;11.18;;
55993;SDS011;41879;52.126;20.638;2022-10-16T06:29:27;20.35;;;11.65;;
55993;SDS011;41879;52.126;20.638;2022-10-16T06:31:53;18.73;;;12.13;;
55993;SDS011;41879;52.126;20.638;2022-10-16T06:34:18;20.20;;;11.60;;
55993;SDS011;41879;52.126;20.638;2022-10-16T06:36:44;22.73;;;12.10;;
55993;SDS011;41879;52.126;20.638;2022-10-16T06:39:09;18.90;;;12.07;;
55993;SDS011;41879;52.126;20.638;2022-10-16T06:41:35;19.35;;;10.50;;
55993;SDS011;41879;52.126;20.638;2022-10-16T06:44:01;22.55;;;11.68;;
55993;SDS011;41879;52.126;20.638;2022-10-16T06:46:30;19.92;;;11.65;;
55993;SDS011;41879;52.126;20.638;2022-10-16T06:48:55;15.30;;;10.65;;
55993;SDS011;41879;52.126;20.638;2022-10-16T06:51:21;14.48;;;10.85;;
55993;SDS011;41879;52.126;20.638;2022-10-16T06:53:49;18.40;;;11.75;;
55993;SDS011;41879;52.126;20.638;2022-10-16T06:56:18;16.13;;;10.43;;
55993;SDS011;41879;52.126;20.638;2022-10-16T06:58:50;19.83;;;10.70;;
55993;SDS011;41879;52.126;20.638;2022-10-16T07:01:27;18.33;;;10.07;;
55993;SDS011;41879;52.126;20.638;2022-10-16T07:03:53;18.70;;;10.93;;
55993;SDS011;41879;52.126;20.638;2022-10-16T07:06:20;21.13;;;10.57;;
55993;SDS011;41879;52.126;20.638;2022-10-16T07:08:48;22.27;;;10.70;;
55993;SDS011;41879;52.126;20.638;2022-10-16T07:11:15;13.32;;;10.50;;
55993;SDS011;41879;52.126;20.638;2022-10-16T07:13:42;18.35;;;11.02;;
55993;SDS011;41879;52.126;20.638;2022-10-16T07:16:15;16.02;;;11.02;;
55993;SDS011;41879;52.126;20.638;2022-10-16T07:18:43;16.23;;;10.65;;
55993;SDS011;41879;52.126;20.638;2022-10-16T07:21:18;22.20;;;10.60;;
55993;SDS011;41879;52.126;20.638;2022-10-16T07:23:46;21.75;;;10.25;;
55993;SDS011;41879;52.126;20.638;2022-10-16T07:26:16;16.23;;;11.10;;
55993;SDS011;41879;52.126;20.638;2022-10-16T07:28:43;15.82;;;9.50;;
55993;SDS011;41879;52.126;20.638;2022-10-16T07:31:10;14.55;;;10.10;;
55993;SDS011;41879;52.126;20.638;2022-10-16T07:33:38;19.75;;;10.20;;
55993;SDS011;41879;52.126;20.638;2022-10-16T07:36:05;15.95;;;9.93;;
55993;SDS011;41879;52.126;20.638;2022-10-16T07:38:31;15.88;;;10.52;;
55993;SDS011;41879;52.126;20.638;2022-10-16T07:41:00;15.07;;;10.02;;
55993;SDS011;41879;52.126;20.638;2022-10-16T07:43:28;14.23;;;9.48;;
55993;SDS011;41879;52.126;20.638;2022-10-16T07:45:54;12.23;;;8.98;;
55993;SDS011;41879;52.126;20.638;2022-10-16T07:48:20;13.25;;;8.93;;
55993;SDS011;41879;52.126;20.638;2022-10-16T07:50:48;24.05;;;9.75;;
55993;SDS011;41879;52.126;20.638;2022-10-16T07:53:14;18.80;;;9.55;;
55993;SDS011;41879;52.126;20.638;2022-10-16T07:55:40;16.88;;;9.38;;
55993;SDS011;41879;52.126;20.638;2022-10-16T07:58:05;16.08;;;8.68;;
55993;SDS011;41879;52.126;20.638;2022-10-16T08:00:31;11.60;;;8.98;;
55993;SDS011;41879;52.126;20.638;2022-10-16T08:02:57;14.63;;;10.10;;
55993;SDS011;41879;52.126;20.638;2022-10-16T08:05:27;13.18;;;8.88;;
55993;SDS011;41879;52.126;20.638;2022-10-16T08:07:53;15.68;;;9.13;;
55993;SDS011;41879;52.126;20.638;2022-10-16T08:10:22;10.98;;;8.75;;
55993;SDS011;41879;52.126;20.638;2022-10-16T08:12:50;13.20;;;9.50;;
55993;SDS011;41879;52.126;20.638;2022-10-16T08:15:16;12.93;;;7.85;;
55993;SDS011;41879;52.126;20.638;2022-10-16T08:17:41;12.05;;;8.60;;
55993;SDS011;41879;52.126;20.638;2022-10-16T08:20:07;10.55;;;8.05;;
55993;SDS011;41879;52.126;20.638;2022-10-16T08:22:33;19.95;;;9.15;;
55993;SDS011;41879;52.126;20.638;2022-10-16T08:24:59;12.70;;;8.77;;
55993;SDS011;41879;52.126;20.638;2022-10-16T08:27:24;12.88;;;8.43;;
55993;SDS011;41879;52.126;20.638;2022-10-16T08:29:50;18.23;;;8.82;;
55993;SDS011;41879;52.126;20.638;2022-10-16T08:32:15;14.30;;;9.65;;
55993;SDS011;41879;52.126;20.638;2022-10-16T08:34:41;13.65;;;8.55;;
55993;SDS011;41879;52.126;20.638;2022-10-16T08:37:06;13.15;;;8.98;;
55993;SDS011;41879;52.126;20.638;2022-10-16T08:39:36;11.15;;;8.45;;
55993;SDS011;41879;52.126;20.638;2022-10-16T08:42:14;16.75;;;9.18;;
55993;SDS011;41879;52.126;20.638;2022-10-16T08:50:13;11.48;;;8.63;;
55993;SDS011;41879;52.126;20.638;2022-10-16T08:52:44;13.15;;;9.25;;
55993;SDS011;41879;52.126;20.638;2022-10-16T08:55:17;18.65;;;9.52;;
55993;SDS011;41879;52.126;20.638;2022-10-16T08:58:00;17.23;;;8.52;;
55993;SDS011;41879;52.126;20.638;2022-10-16T09:00:26;13.48;;;9.02;;
55993;SDS011;41879;52.126;20.638;2022-10-16T09:03:42;14.65;;;9.18;;
55993;SDS011;41879;52.126;20.638;2022-10-16T09:06:00;14.35;;;9.00;;
55993;SDS011;41879;52.126;20.638;2022-10-16T09:08:51;15.32;;;7.80;;
55993;SDS011;41879;52.126;20.638;2022-10-16T09:11:48;13.65;;;9.10;;
55993;SDS011;41879;52.126;20.638;2022-10-16T09:17:03;15.38;;;9.57;;
55993;SDS011;41879;52.126;20.638;2022-10-16T09:19:52;15.25;;;8.93;;
55993;SDS011;41879;52.126;20.638;2022-10-16T09:22:25;11.10;;;8.43;;
55993;SDS011;41879;52.126;20.638;2022-10-16T09:24:54;11.73;;;8.65;;
55993;SDS011;41879;52.126;20.638;2022-10-16T09:27:24;14.50;;;8.70;;
55993;SDS011;41879;52.126;20.638;2022-10-16T09:29:51;17.45;;;9.27;;
55993;SDS011;41879;52.126;20.638;2022-10-16T09:32:20;13.25;;;8.63;;
55993;SDS011;41879;52.126;20.638;2022-10-16T09:34:48;16.55;;;9.73;;
55993;SDS011;41879;52.126;20.638;2022-10-16T09:37:18;17.90;;;9.82;;
55993;SDS011;41879;52.126;20.638;2022-10-16T09:39:47;16.90;;;8.98;;
55993;SDS011;41879;52.126;20.638;2022-10-16T09:42:16;15.25;;;9.65;;
55993;SDS011;41879;52.126;20.638;2022-10-16T09:44:49;18.17;;;9.70;;
55993;SDS011;41879;52.126;20.638;2022-10-16T09:52:19;20.10;;;8.82;;
55993;SDS011;41879;52.126;20.638;2022-10-16T09:54:54;15.07;;;9.20;;
55993;SDS011;41879;52.126;20.638;2022-10-16T09:57:25;15.23;;;9.32;;
55993;SDS011;41879;52.126;20.638;2022-10-16T09:59:54;13.68;;;9.30;;
55993;SDS011;41879;52.126;20.638;2022-10-16T10:02:30;17.15;;;9.70;;
55993;SDS011;41879;52.126;20.638;2022-10-16T10:04:59;11.75;;;8.65;;
55993;SDS011;41879;52.126;20.638;2022-10-16T10:07:32;12.93;;;8.95;;
55993;SDS011;41879;52.126;20.638;2022-10-16T10:13:16;14.00;;;9.57;;
55993;SDS011;41879;52.126;20.638;2022-10-16T10:15:45;14.75;;;8.88;;
55993;SDS011;41879;52.126;20.638;2022-10-16T10:18:17;12.63;;;8.38;;
55993;SDS011;41879;52.126;20.638;2022-10-16T10:20:45;15.85;;;9.27;;
55993;SDS011;41879;52.126;20.638;2022-10-16T10:23:19;19.52;;;9.32;;
55993;SDS011;41879;52.126;20.638;2022-10-16T10:26:06;12.27;;;8.50;;
55993;SDS011;41879;52.126;20.638;2022-10-16T10:28:51;13.02;;;8.70;;
55993;SDS011;41879;52.126;20.638;2022-10-16T10:34:39;10.93;;;8.88;;
55993;SDS011;41879;52.126;20.638;2022-10-16T10:37:41;12.02;;;8.30;;
55993;SDS011;41879;52.126;20.638;2022-10-16T10:43:13;15.75;;;8.77;;
55993;SDS011;41879;52.126;20.638;2022-10-16T10:46:04;12.23;;;8.93;;
55993;SDS011;41879;52.126;20.638;2022-10-16T10:48:46;11.43;;;8.27;;
55993;SDS011;41879;52.126;20.638;2022-10-16T10:54:49;12.38;;;8.48;;
55993;SDS011;41879;52.126;20.638;2022-10-16T10:57:25;8.75;;;7.57;;
55993;SDS011;41879;52.126;20.638;2022-10-16T11:02:49;10.20;;;7.03;;
55993;SDS011;41879;52.126;20.638;2022-10-16T11:05:33;11.25;;;7.40;;
55993;SDS011;41879;52.126;20.638;2022-10-16T11:08:10;16.15;;;7.35;;
55993;SDS011;41879;52.126;20.638;2022-10-16T11:10:45;12.55;;;7.65;;
55993;SDS011;41879;52.126;20.638;2022-10-16T11:15:40;12.52;;;7.25;;
55993;SDS011;41879;52.126;20.638;2022-10-16T11:18:27;13.05;;;7.13;;
55993;SDS011;41879;52.126;20.638;2022-10-16T11:20:56;8.43;;;7.07;;
55993;SDS011;41879;52.126;20.638;2022-10-16T11:23:27;11.70;;;7.45;;
55993;SDS011;41879;52.126;20.638;2022-10-16T11:26:02;10.77;;;7.30;;
55993;SDS011;41879;52.126;20.638;2022-10-16T11:28:37;13.63;;;7.40;;
55993;SDS011;41879;52.126;20.638;2022-10-16T11:31:10;12.32;;;7.38;;
55993;SDS011;41879;52.126;20.638;2022-10-16T11:33:45;12.05;;;7.20;;
55993;SDS011;41879;52.126;20.638;2022-10-16T11:36:22;12.90;;;7.60;;
55993;SDS011;41879;52.126;20.638;2022-10-16T11:46:58;9.60;;;7.35;;
55993;SDS011;41879;52.126;20.638;2022-10-16T11:49:26;15.43;;;7.35;;
55993;SDS011;41879;52.126;20.638;2022-10-16T11:52:01;9.20;;;7.10;;
55993;SDS011;41879;52.126;20.638;2022-10-16T11:54:39;11.30;;;6.65;;
55993;SDS011;41879;52.126;20.638;2022-10-16T11:57:18;12.13;;;7.20;;
55993;SDS011;41879;52.126;20.638;2022-10-16T12:00:51;9.00;;;7.15;;
55993;SDS011;41879;52.126;20.638;2022-10-16T12:02:58;9.32;;;6.97;;
55993;SDS011;41879;52.126;20.638;2022-10-16T12:08:30;8.65;;;7.10;;
55993;SDS011;41879;52.126;20.638;2022-10-16T12:11:19;9.98;;;7.15;;
55993;SDS011;41879;52.126;20.638;2022-10-16T12:13:46;14.98;;;7.40;;
55993;SDS011;41879;52.126;20.638;2022-10-16T12:18:39;18.40;;;7.50;;
55993;SDS011;41879;52.126;20.638;2022-10-16T12:21:06;11.05;;;7.65;;
55993;SDS011;41879;52.126;20.638;2022-10-16T12:23:55;13.13;;;7.88;;
55993;SDS011;41879;52.126;20.638;2022-10-16T12:26:24;12.05;;;7.30;;
55993;SDS011;41879;52.126;20.638;2022-10-16T12:28:54;16.90;;;7.80;;
55993;SDS011;41879;52.126;20.638;2022-10-16T12:31:21;8.15;;;7.05;;
55993;SDS011;41879;52.126;20.638;2022-10-16T12:33:58;14.77;;;7.22;;
55993;SDS011;41879;52.126;20.638;2022-10-16T12:36:30;15.75;;;7.72;;
55993;SDS011;41879;52.126;20.638;2022-10-16T12:38:58;11.43;;;7.82;;
55993;SDS011;41879;52.126;20.638;2022-10-16T12:41:31;11.45;;;7.47;;
55993;SDS011;41879;52.126;20.638;2022-10-16T12:44:00;14.27;;;7.80;;
55993;SDS011;41879;52.126;20.638;2022-10-16T12:51:53;8.10;;;6.22;;
55993;SDS011;41879;52.126;20.638;2022-10-16T12:54:23;11.02;;;6.22;;
55993;SDS011;41879;52.126;20.638;2022-10-16T13:13:29;8.60;;;6.18;;
55993;SDS011;41879;52.126;20.638;2022-10-16T13:16:44;6.10;;;5.50;;
55993;SDS011;41879;52.126;20.638;2022-10-16T13:22:27;10.02;;;5.30;;
55993;SDS011;41879;52.126;20.638;2022-10-16T13:30:24;6.43;;;5.70;;
55993;SDS011;41879;52.126;20.638;2022-10-16T13:33:10;11.18;;;6.07;;
55993;SDS011;41879;52.126;20.638;2022-10-16T13:35:48;6.50;;;5.90;;
55993;SDS011;41879;52.126;20.638;2022-10-16T13:38:19;10.85;;;6.22;;
55993;SDS011;41879;52.126;20.638;2022-10-16T13:43:18;8.50;;;6.07;;
55993;SDS011;41879;52.126;20.638;2022-10-16T13:46:04;6.40;;;5.03;;
55993;SDS011;41879;52.126;20.638;2022-10-16T13:48:40;8.50;;;4.78;;
55993;SDS011;41879;52.126;20.638;2022-10-16T13:51:16;6.53;;;5.03;;
55993;SDS011;41879;52.126;20.638;2022-10-16T13:53:43;13.05;;;4.40;;
55993;SDS011;41879;52.126;20.638;2022-10-16T13:56:12;5.88;;;5.28;;
55993;SDS011;41879;52.126;20.638;2022-10-16T13:58:39;6.88;;;4.57;;
55993;SDS011;41879;52.126;20.638;2022-10-16T14:01:15;6.30;;;4.78;;
55993;SDS011;41879;52.126;20.638;2022-10-16T14:03:41;10.82;;;5.63;;
55993;SDS011;41879;52.126;20.638;2022-10-16T14:06:11;7.32;;;4.85;;
55993;SDS011;41879;52.126;20.638;2022-10-16T14:08:42;5.53;;;4.60;;
55993;SDS011;41879;52.126;20.638;2022-10-16T14:11:10;5.60;;;4.97;;
55993;SDS011;41879;52.126;20.638;2022-10-16T14:13:43;7.97;;;5.30;;
55993;SDS011;41879;52.126;20.638;2022-10-16T14:16:15;5.30;;;4.65;;
55993;SDS011;41879;52.126;20.638;2022-10-16T14:18:44;5.82;;;4.97;;
55993;SDS011;41879;52.126;20.638;2022-10-16T14:21:15;5.22;;;4.72;;
55993;SDS011;41879;52.126;20.638;2022-10-16T14:23:42;10.43;;;4.75;;
55993;SDS011;41879;52.126;20.638;2022-10-16T14:28:33;7.18;;;5.50;;
55993;SDS011;41879;52.126;20.638;2022-10-16T14:31:00;9.05;;;5.05;;
55993;SDS011;41879;52.126;20.638;2022-10-16T14:33:42;10.48;;;5.10;;
55993;SDS011;41879;52.126;20.638;2022-10-16T14:36:11;5.30;;;4.65;;
55993;SDS011;41879;52.126;20.638;2022-10-16T14:38:40;6.07;;;5.20;;
55993;SDS011;41879;52.126;20.638;2022-10-16T14:41:08;8.95;;;5.30;;
55993;SDS011;41879;52.126;20.638;2022-10-16T14:43:35;7.22;;;5.32;;
55993;SDS011;41879;52.126;20.638;2022-10-16T14:46:03;8.07;;;5.78;;
55993;SDS011;41879;52.126;20.638;2022-10-16T14:48:39;5.57;;;5.03;;
55993;SDS011;41879;52.126;20.638;2022-10-16T14:51:08;5.45;;;4.78;;
55993;SDS011;41879;52.126;20.638;2022-10-16T14:53:39;5.60;;;5.00;;
55993;SDS011;41879;52.126;20.638;2022-10-16T14:56:08;8.07;;;5.57;;
55993;SDS011;41879;52.126;20.638;2022-10-16T14:58:40;9.25;;;5.07;;
55993;SDS011;41879;52.126;20.638;2022-10-16T15:01:07;12.88;;;5.40;;
55993;SDS011;41879;52.126;20.638;2022-10-16T15:03:36;7.45;;;4.80;;
55993;SDS011;41879;52.126;20.638;2022-10-16T15:06:01;6.70;;;5.20;;
55993;SDS011;41879;52.126;20.638;2022-10-16T15:08:27;6.63;;;5.03;;
55993;SDS011;41879;52.126;20.638;2022-10-16T15:10:52;9.70;;;5.07;;
55993;SDS011;41879;52.126;20.638;2022-10-16T15:13:18;7.88;;;5.35;;
55993;SDS011;41879;52.126;20.638;2022-10-16T15:15:44;11.15;;;6.57;;
55993;SDS011;41879;52.126;20.638;2022-10-16T15:18:12;5.78;;;5.20;;
55993;SDS011;41879;52.126;20.638;2022-10-16T15:20:40;14.65;;;6.03;;
55993;SDS011;41879;52.126;20.638;2022-10-16T15:23:24;6.95;;;5.40;;
55993;SDS011;41879;52.126;20.638;2022-10-16T15:28:19;12.30;;;6.80;;
55993;SDS011;41879;52.126;20.638;2022-10-16T15:30:46;8.18;;;5.50;;
55993;SDS011;41879;52.126;20.638;2022-10-16T15:33:16;12.85;;;7.40;;
55993;SDS011;41879;52.126;20.638;2022-10-16T15:35:49;8.82;;;6.18;;
55993;SDS011;41879;52.126;20.638;2022-10-16T15:38:17;9.75;;;7.45;;
55993;SDS011;41879;52.126;20.638;2022-10-16T15:40:45;11.45;;;7.32;;
55993;SDS011;41879;52.126;20.638;2022-10-16T15:43:11;14.40;;;8.32;;
55993;SDS011;41879;52.126;20.638;2022-10-16T15:45:37;12.77;;;8.57;;
55993;SDS011;41879;52.126;20.638;2022-10-16T15:48:02;16.17;;;8.80;;
55993;SDS011;41879;52.126;20.638;2022-10-16T15:50:29;18.15;;;9.23;;
55993;SDS011;41879;52.126;20.638;2022-10-16T15:52:55;16.23;;;7.85;;
55993;SDS011;41879;52.126;20.638;2022-10-16T15:55:21;9.88;;;8.02;;
55993;SDS011;41879;52.126;20.638;2022-10-16T15:57:46;18.05;;;8.68;;
55993;SDS011;41879;52.126;20.638;2022-10-16T16:00:13;13.32;;;8.32;;
55993;SDS011;41879;52.126;20.638;2022-10-16T16:02:41;14.10;;;8.10;;
55993;SDS011;41879;52.126;20.638;2022-10-16T16:05:08;11.38;;;8.05;;